createdAt,value
2023-04-22T00:02:17.346Z,13.70
2023-04-22T00:04:46.617Z,13.70
2023-04-22T00:07:15.174Z,13.60
2023-04-22T00:09:42.592Z,13.50
2023-04-22T00:12:11.706Z,13.50
2023-04-22T00:14:38.945Z,13.40
2023-04-22T00:17:06.965Z,13.40
2023-04-22T00:19:34.655Z,13.40
2023-04-22T00:22:01.708Z,13.30
2023-04-22T00:24:28.298Z,13.30
2023-04-22T00:26:54.974Z,13.30
2023-04-22T00:29:21.672Z,13.20
2023-04-22T00:31:48.414Z,13.30
2023-04-22T00:34:17.791Z,13.20
2023-04-22T00:36:44.706Z,13.20
2023-04-22T00:39:12.269Z,13.20
2023-04-22T00:41:40.174Z,13.20
2023-04-22T00:44:10.996Z,13.20
2023-04-22T00:46:40.910Z,13.20
2023-04-22T00:49:08.220Z,13.20
2023-04-22T00:51:35.507Z,13.10
2023-04-22T00:54:03.346Z,13.10
2023-04-22T00:56:31.491Z,13.00
2023-04-22T00:58:58.993Z,13.00
2023-04-22T01:01:26.425Z,13.00
2023-04-22T01:03:53.854Z,13.00
2023-04-22T01:06:22.097Z,13.00
2023-04-22T01:08:48.853Z,13.00
2023-04-22T01:11:15.466Z,12.90
2023-04-22T01:13:42.410Z,12.90
2023-04-22T01:16:10.033Z,12.90
2023-04-22T01:18:37.437Z,12.80
2023-04-22T01:21:04.458Z,12.70
2023-04-22T01:23:31.340Z,12.70
2023-04-22T01:25:58.103Z,12.60
2023-04-22T01:28:25.792Z,12.60
2023-04-22T01:30:52.500Z,12.50
2023-04-22T01:33:19.280Z,12.50
2023-04-22T01:35:46.004Z,12.40
2023-04-22T01:38:13.305Z,12.40
2023-04-22T01:40:40.073Z,12.30
2023-04-22T01:43:06.884Z,12.30
2023-04-22T01:45:34.027Z,12.30
2023-04-22T01:48:00.950Z,12.30
2023-04-22T01:50:27.848Z,12.20
2023-04-22T01:52:54.547Z,12.20
2023-04-22T01:55:21.255Z,12.20
2023-04-22T01:57:47.866Z,12.10
2023-04-22T02:00:14.592Z,12.10
2023-04-22T02:02:41.461Z,12.00
2023-04-22T02:05:08.903Z,12.00
2023-04-22T02:07:36.485Z,12.00
2023-04-22T02:10:06.689Z,12.00
2023-04-22T02:12:33.361Z,11.90
2023-04-22T02:15:00.021Z,11.90
2023-04-22T02:17:27.462Z,11.90
2023-04-22T02:19:54.373Z,11.90
2023-04-22T02:22:22.853Z,11.80
2023-04-22T02:24:49.597Z,11.80
2023-04-22T02:27:16.259Z,11.80
2023-04-22T02:29:42.861Z,11.80
2023-04-22T02:32:09.613Z,11.70
2023-04-22T02:34:36.550Z,11.70
2023-04-22T02:37:03.213Z,11.70
2023-04-22T02:39:29.853Z,11.60
2023-04-22T02:41:56.446Z,11.60
2023-04-22T02:44:23.057Z,11.60
2023-04-22T02:46:49.814Z,11.60
2023-04-22T02:49:16.511Z,11.50
2023-04-22T02:51:43.178Z,11.50
2023-04-22T02:54:09.937Z,11.50
2023-04-22T02:56:36.630Z,11.40
2023-04-22T02:59:03.522Z,11.40
2023-04-22T03:01:30.387Z,11.40
2023-04-22T03:03:57.370Z,11.40
2023-04-22T03:06:24.234Z,11.30
2023-04-22T03:08:50.995Z,11.30
2023-04-22T03:11:17.630Z,11.30
2023-04-22T03:13:44.337Z,11.20
2023-04-22T03:16:11.139Z,11.20
2023-04-22T03:18:37.783Z,11.20
2023-04-22T03:21:04.612Z,11.20
2023-04-22T03:23:31.325Z,11.10
2023-04-22T03:25:58.018Z,11.10
2023-04-22T03:28:24.613Z,11.10
2023-04-22T03:30:52.043Z,11.00
2023-04-22T03:33:18.847Z,11.00
2023-04-22T03:35:48.793Z,11.00
2023-04-22T03:38:16.294Z,11.00
2023-04-22T03:40:43.436Z,11.00
2023-04-22T03:43:10.161Z,10.90
2023-04-22T03:45:37.094Z,10.90
2023-04-22T03:48:04.134Z,10.90
2023-04-22T03:50:30.887Z,10.90
2023-04-22T03:52:57.501Z,10.80
2023-04-22T03:55:24.334Z,10.80
2023-04-22T03:57:51.071Z,10.80
2023-04-22T04:00:17.900Z,10.80
2023-04-22T04:02:44.809Z,10.70
2023-04-22T04:05:11.856Z,10.70
2023-04-22T04:07:38.821Z,10.70
2023-04-22T04:10:06.343Z,10.70
2023-04-22T04:12:33.081Z,10.70
2023-04-22T04:14:59.706Z,10.70
2023-04-22T04:17:26.459Z,10.70
2023-04-22T04:19:53.562Z,10.70
2023-04-22T04:22:20.344Z,10.60
2023-04-22T04:24:47.430Z,10.70
2023-04-22T04:27:14.357Z,10.70
2023-04-22T04:29:42.275Z,10.70
2023-04-22T04:32:09.866Z,10.70
2023-04-22T04:34:37.728Z,10.60
2023-04-22T04:37:04.433Z,10.70
2023-04-22T04:39:31.190Z,10.70
2023-04-22T04:41:58.937Z,10.70
2023-04-22T04:44:31.621Z,10.70
2023-04-22T04:46:58.822Z,10.60
2023-04-22T04:49:25.927Z,10.70
2023-04-22T04:51:52.515Z,10.70
2023-04-22T04:54:19.181Z,10.70
2023-04-22T04:56:45.875Z,10.70
2023-04-22T04:59:12.458Z,10.70
2023-04-22T05:01:39.134Z,10.70
2023-04-22T05:04:06.443Z,10.80
2023-04-22T05:06:33.653Z,10.80
2023-04-22T05:09:00.370Z,10.90
2023-04-22T05:11:26.947Z,10.90
2023-04-22T05:13:53.516Z,10.90
2023-04-22T05:16:20.361Z,11.00
2023-04-22T05:18:47.100Z,11.00
2023-04-22T05:21:13.769Z,11.10
2023-04-22T05:23:40.362Z,11.10
2023-04-22T05:26:06.970Z,11.10
2023-04-22T05:28:33.662Z,11.20
2023-04-22T05:31:00.230Z,11.30
2023-04-22T05:33:26.850Z,11.30
2023-04-22T05:35:53.661Z,11.40
2023-04-22T05:38:20.426Z,11.50
2023-04-22T05:40:47.194Z,11.50
2023-04-22T05:43:14.086Z,11.60
2023-04-22T05:45:41.092Z,11.70
2023-04-22T05:48:07.763Z,11.80
2023-04-22T05:50:34.449Z,11.90
2023-04-22T05:53:01.058Z,11.90
2023-04-22T05:55:31.363Z,11.90
2023-04-22T05:57:58.179Z,12.00
2023-04-22T06:00:24.864Z,12.10
2023-04-22T06:02:51.737Z,12.20
2023-04-22T06:05:18.513Z,12.30
2023-04-22T06:07:45.201Z,12.50
2023-04-22T06:10:12.119Z,12.60
2023-04-22T06:12:38.715Z,12.70
2023-04-22T06:15:06.193Z,12.80
2023-04-22T06:17:32.894Z,12.80
2023-04-22T06:19:59.616Z,12.90
2023-04-22T06:22:26.244Z,13.10
2023-04-22T06:24:52.866Z,13.20
2023-04-22T06:27:19.523Z,13.30
2023-04-22T06:29:46.389Z,13.40
2023-04-22T06:32:13.185Z,13.50
2023-04-22T06:34:39.836Z,13.70
2023-04-22T06:37:06.810Z,13.80
2023-04-22T06:39:33.518Z,14.00
2023-04-22T06:42:01.471Z,14.20
2023-04-22T06:44:29.237Z,14.30
2023-04-22T06:46:57.928Z,14.50
2023-04-22T06:49:25.036Z,14.70
2023-04-22T06:51:51.712Z,14.80
2023-04-22T06:54:18.364Z,15.00
2023-04-22T06:56:45.106Z,15.20
2023-04-22T06:59:11.766Z,15.40
2023-04-22T07:01:38.400Z,15.50
2023-04-22T07:04:05.203Z,15.70
2023-04-22T07:06:32.937Z,15.80
2023-04-22T07:08:59.807Z,16.00
2023-04-22T07:11:27.756Z,16.10
2023-04-22T07:13:54.495Z,16.30
2023-04-22T07:16:21.309Z,16.40
2023-04-22T07:18:48.090Z,16.60
2023-04-22T07:21:14.776Z,16.70
2023-04-22T07:23:41.425Z,16.80
2023-04-22T07:26:08.120Z,17.00
2023-04-22T07:28:34.762Z,17.10
2023-04-22T07:31:02.018Z,17.20
2023-04-22T07:33:28.924Z,17.40
2023-04-22T07:35:55.637Z,17.50
2023-04-22T07:38:22.344Z,17.60
2023-04-22T07:40:49.806Z,17.70
2023-04-22T07:43:16.945Z,17.80
2023-04-22T07:45:44.164Z,18.00
2023-04-22T07:48:10.871Z,18.10
2023-04-22T07:50:38.805Z,18.20
2023-04-22T07:53:06.187Z,18.30
2023-04-22T07:55:32.942Z,18.40
2023-04-22T07:58:01.143Z,18.50
2023-04-22T08:00:28.082Z,18.70
2023-04-22T08:02:55.069Z,18.80
2023-04-22T08:05:21.882Z,18.90
2023-04-22T08:07:48.793Z,19.00
2023-04-22T08:10:15.497Z,19.10
2023-04-22T08:12:42.120Z,19.20
2023-04-22T08:15:09.306Z,19.40
2023-04-22T08:17:36.164Z,19.50
2023-04-22T08:20:05.198Z,19.60
2023-04-22T08:22:34.050Z,19.70
2023-04-22T08:25:00.673Z,19.80
2023-04-22T08:27:27.348Z,19.90
2023-04-22T08:29:53.976Z,20.00
2023-04-22T08:32:22.446Z,20.10
2023-04-22T08:34:51.794Z,20.30
2023-04-22T08:37:18.835Z,20.40
2023-04-22T08:39:45.435Z,20.60
2023-04-22T08:42:13.273Z,20.70
2023-04-22T08:44:40.188Z,20.90
2023-04-22T08:47:07.199Z,21.00
2023-04-22T08:49:36.557Z,21.10
2023-04-22T08:52:03.530Z,21.30
2023-04-22T08:54:30.280Z,21.40
2023-04-22T08:56:57.270Z,21.50
2023-04-22T08:59:23.981Z,21.60
2023-04-22T09:01:56.450Z,21.70
2023-04-22T09:04:23.690Z,21.90
2023-04-22T09:06:50.384Z,22.00
2023-04-22T09:09:17.413Z,22.20
2023-04-22T09:11:44.171Z,22.30
2023-04-22T09:14:10.838Z,22.40
2023-04-22T09:16:44.664Z,22.60
2023-04-22T09:19:13.051Z,22.80
2023-04-22T09:21:41.099Z,23.00
2023-04-22T09:24:09.092Z,23.10
2023-04-22T09:26:41.320Z,23.20
2023-04-22T09:29:13.187Z,23.30
2023-04-22T09:31:40.813Z,23.50
2023-04-22T09:34:08.194Z,23.60
2023-04-22T09:36:37.416Z,23.80
2023-04-22T09:39:07.382Z,24.00
2023-04-22T09:41:36.351Z,24.10
2023-04-22T09:44:04.960Z,24.30
2023-04-22T09:46:34.097Z,24.30
2023-04-22T09:49:00.937Z,24.50
2023-04-22T09:51:29.231Z,24.60
2023-04-22T09:54:10.635Z,24.70
2023-04-22T09:56:48.386Z,24.90
2023-04-22T09:59:21.876Z,25.00
2023-04-22T10:01:50.785Z,25.20
2023-04-22T10:04:21.250Z,25.40
2023-04-22T10:06:49.153Z,25.70
2023-04-22T10:09:20.326Z,25.90
2023-04-22T10:12:43.165Z,26.10
2023-04-22T10:14:43.720Z,26.20
2023-04-22T10:17:12.783Z,26.40
2023-04-22T10:19:40.616Z,26.50
2023-04-22T10:22:10.880Z,26.70
2023-04-22T10:24:38.360Z,26.90
2023-04-22T10:27:10.736Z,27.10
2023-04-22T10:29:40.717Z,27.20
2023-04-22T10:32:11.561Z,27.40
2023-04-22T10:34:41.035Z,27.70
2023-04-22T10:37:12.581Z,27.90
2023-04-22T10:39:41.531Z,28.00
2023-04-22T10:42:24.194Z,28.20
2023-04-22T10:45:14.908Z,28.40
2023-04-22T10:47:45.490Z,28.50
2023-04-22T10:50:33.274Z,28.70
2023-04-22T10:53:21.837Z,28.90
2023-04-22T10:55:53.150Z,29.00
2023-04-22T10:58:21.463Z,29.10
2023-04-22T11:00:54.204Z,29.20
2023-04-22T11:03:30.180Z,29.30
2023-04-22T11:06:17.673Z,29.40
2023-04-22T11:08:46.408Z,29.30
2023-04-22T11:11:14.221Z,29.40
2023-04-22T11:13:44.025Z,29.50
2023-04-22T11:16:11.420Z,29.60
2023-04-22T11:18:38.396Z,29.70
2023-04-22T11:21:07.253Z,29.70
2023-04-22T11:23:33.996Z,29.80
2023-04-22T11:26:02.904Z,29.80
2023-04-22T11:28:29.563Z,29.90
2023-04-22T11:31:07.229Z,30.00
2023-04-22T11:33:34.758Z,30.10
2023-04-22T11:36:01.727Z,30.20
2023-04-22T11:38:28.671Z,30.20
2023-04-22T11:40:57.902Z,30.30
2023-04-22T11:43:25.015Z,30.40
2023-04-22T11:45:51.809Z,30.50
2023-04-22T11:48:18.567Z,30.70
2023-04-22T11:50:45.501Z,30.70
2023-04-22T11:53:24.067Z,30.80
2023-04-22T11:55:51.536Z,31.00
2023-04-22T11:58:23.723Z,31.10
2023-04-22T12:00:52.608Z,31.30
2023-04-22T12:03:22.496Z,31.50
2023-04-22T12:05:57.230Z,31.60
2023-04-22T12:08:31.541Z,31.60
2023-04-22T12:11:00.342Z,31.70
2023-04-22T12:13:41.007Z,31.80
2023-04-22T12:16:14.806Z,31.90
2023-04-22T12:18:52.836Z,32.00
2023-04-22T12:21:25.108Z,32.00
2023-04-22T12:23:55.030Z,31.90
2023-04-22T12:26:27.590Z,31.90
2023-04-22T12:28:56.834Z,32.00
2023-04-22T12:31:28.836Z,32.00
2023-04-22T12:34:28.223Z,32.00
2023-04-22T12:36:56.234Z,32.20
2023-04-22T12:39:22.850Z,32.20
2023-04-22T12:41:51.057Z,32.30
2023-04-22T12:44:17.769Z,32.40
2023-04-22T12:46:44.531Z,32.50
2023-04-22T12:49:11.238Z,32.70
2023-04-22T12:51:37.804Z,32.80
2023-04-22T12:54:04.499Z,32.80
2023-04-22T12:56:31.305Z,32.70
2023-04-22T12:59:03.035Z,32.80
2023-04-22T13:01:30.360Z,32.80
2023-04-22T13:03:57.317Z,32.90
2023-04-22T13:06:24.028Z,33.00
2023-04-22T13:08:50.711Z,33.00
2023-04-22T13:11:17.323Z,33.00
2023-04-22T13:13:43.948Z,33.00
2023-04-22T13:16:11.021Z,33.10
2023-04-22T13:18:37.724Z,33.20
2023-04-22T13:21:05.726Z,33.20
2023-04-22T13:23:32.855Z,33.30
2023-04-22T13:25:59.676Z,33.30
2023-04-22T13:28:26.361Z,33.40
2023-04-22T13:30:54.070Z,33.60
2023-04-22T13:33:20.684Z,33.70
2023-04-22T13:35:47.296Z,33.60
2023-04-22T13:38:13.917Z,33.70
2023-04-22T13:40:40.708Z,33.70
2023-04-22T13:43:09.562Z,33.70
2023-04-22T13:45:36.902Z,33.70
2023-04-22T13:48:04.135Z,33.70
2023-04-22T13:50:30.913Z,33.70
2023-04-22T13:52:57.681Z,33.90
2023-04-22T13:55:24.348Z,34.00
2023-04-22T13:57:51.888Z,34.20
2023-04-22T14:00:18.700Z,34.40
2023-04-22T14:02:45.577Z,34.40
2023-04-22T14:05:12.281Z,34.40
2023-04-22T14:07:38.925Z,34.40
2023-04-22T14:10:08.319Z,34.20
2023-04-22T14:12:34.983Z,34.20
2023-04-22T14:15:01.729Z,34.20
2023-04-22T14:17:28.921Z,34.20
2023-04-22T14:19:55.954Z,34.30
2023-04-22T14:22:22.572Z,34.30
2023-04-22T14:24:49.321Z,34.30
2023-04-22T14:27:15.955Z,34.30
2023-04-22T14:29:43.861Z,34.30
2023-04-22T14:32:10.581Z,34.30
2023-04-22T14:34:39.090Z,34.30
2023-04-22T14:37:06.181Z,34.30
2023-04-22T14:39:32.892Z,34.30
2023-04-22T14:41:59.583Z,34.40
2023-04-22T14:44:26.381Z,34.50
2023-04-22T14:46:53.060Z,34.50
2023-04-22T14:49:19.685Z,34.60
2023-04-22T14:51:47.087Z,34.50
2023-04-22T14:54:13.852Z,34.40
2023-04-22T14:56:40.644Z,34.40
2023-04-22T14:59:07.425Z,34.30
2023-04-22T15:01:34.310Z,34.20
2023-04-22T15:04:01.181Z,34.20
2023-04-22T15:06:28.328Z,34.20
2023-04-22T15:08:55.937Z,34.10
2023-04-22T15:11:22.714Z,34.00
2023-04-22T15:13:49.491Z,34.00
2023-04-22T15:16:16.340Z,34.00
2023-04-22T15:18:43.253Z,33.90
2023-04-22T15:21:10.753Z,33.80
2023-04-22T15:23:37.734Z,33.80
2023-04-22T15:26:04.641Z,33.70
2023-04-22T15:28:31.401Z,33.60
2023-04-22T15:30:58.425Z,33.40
2023-04-22T15:33:25.320Z,33.20
2023-04-22T15:35:52.105Z,33.00
2023-04-22T15:38:18.850Z,32.80
2023-04-22T15:40:45.634Z,32.70
2023-04-22T15:43:12.303Z,32.80
2023-04-22T15:45:39.204Z,32.80
2023-04-22T15:48:06.114Z,32.90
2023-04-22T15:50:33.011Z,32.80
2023-04-22T15:52:59.855Z,32.50
2023-04-22T15:55:26.682Z,32.20
2023-04-22T15:57:53.590Z,32.00
2023-04-22T16:00:20.484Z,31.70
2023-04-22T16:02:55.216Z,31.50
2023-04-22T16:05:24.712Z,31.10
2023-04-22T16:07:53.087Z,30.80
2023-04-22T16:10:20.541Z,30.70
2023-04-22T16:12:47.439Z,30.50
2023-04-22T16:15:14.219Z,30.40
2023-04-22T16:17:41.442Z,30.20
2023-04-22T16:20:09.641Z,30.00
2023-04-22T16:22:37.186Z,29.70
2023-04-22T16:32:43.613Z,29.00
2023-04-22T16:35:11.139Z,28.80
2023-04-22T16:37:37.797Z,28.60
2023-04-22T16:40:06.357Z,28.50
2023-04-22T16:42:33.092Z,28.40
2023-04-22T16:45:00.178Z,28.20
2023-04-22T16:47:27.208Z,28.10
2023-04-22T16:49:53.816Z,28.00
2023-04-22T16:52:20.487Z,27.90
2023-04-22T16:54:47.167Z,27.80
2023-04-22T16:57:13.953Z,27.80
2023-04-22T16:59:41.291Z,27.70
2023-04-22T17:02:09.150Z,27.70
2023-04-22T17:04:36.322Z,27.60
2023-04-22T17:07:03.352Z,27.60
2023-04-22T17:09:30.654Z,27.50
2023-04-22T17:11:58.616Z,27.40
2023-04-22T17:14:25.549Z,27.30
2023-04-22T17:16:52.818Z,27.10
2023-04-22T17:19:19.788Z,26.90
2023-04-22T17:21:46.630Z,26.70
2023-04-22T17:24:13.402Z,26.60
2023-04-22T17:26:40.583Z,26.50
2023-04-22T17:29:07.225Z,26.20
2023-04-22T17:31:34.452Z,26.00
2023-04-22T17:34:01.617Z,25.90
2023-04-22T17:36:28.537Z,25.80
2023-04-22T17:38:55.269Z,25.60
2023-04-22T17:41:22.292Z,25.40
2023-04-22T17:43:49.033Z,25.30
2023-04-22T17:46:16.188Z,25.20
2023-04-22T17:48:42.949Z,25.10
2023-04-22T17:51:10.348Z,25.00
2023-04-22T17:53:37.522Z,24.80
2023-04-22T17:56:04.207Z,24.70
2023-04-22T17:58:30.936Z,24.70
2023-04-22T18:00:58.801Z,24.50
2023-04-22T18:03:26.267Z,24.50
2023-04-22T18:05:53.205Z,24.40
2023-04-22T18:08:19.903Z,24.30
2023-04-22T18:10:46.750Z,24.20
2023-04-22T18:13:13.473Z,24.10
2023-04-22T18:15:40.286Z,24.00
2023-04-22T18:18:07.092Z,23.90
2023-04-22T18:20:35.535Z,23.80
2023-04-22T18:23:02.397Z,23.70
2023-04-22T18:25:29.185Z,23.60
2023-04-22T18:27:56.087Z,23.60
2023-04-22T18:30:23.880Z,23.40
2023-04-22T18:32:51.194Z,23.40
2023-04-22T18:35:18.143Z,23.30
2023-04-22T18:37:44.967Z,23.10
2023-04-22T18:40:12.300Z,23.00
2023-04-22T18:42:39.150Z,23.00
2023-04-22T18:45:06.900Z,22.90
2023-04-22T18:47:33.647Z,22.70
2023-04-22T18:50:00.377Z,22.70
2023-04-22T18:52:27.200Z,22.60
2023-04-22T18:54:53.829Z,22.50
2023-04-22T18:57:20.474Z,22.40
2023-04-22T18:59:48.472Z,22.30
2023-04-22T19:02:15.167Z,22.20
2023-04-22T19:04:42.539Z,22.10
2023-04-22T19:07:09.385Z,22.00
2023-04-22T19:09:36.038Z,22.00
2023-04-22T19:12:02.785Z,21.90
2023-04-22T19:14:30.397Z,21.80
2023-04-22T19:16:57.068Z,21.70
2023-04-22T19:19:23.744Z,21.60
2023-04-22T19:21:50.484Z,21.50
2023-04-22T19:24:17.232Z,21.50
2023-04-22T19:26:44.892Z,21.40
2023-04-22T19:29:16.016Z,21.30
2023-04-22T19:31:46.243Z,21.30
2023-04-22T19:34:13.263Z,21.20
2023-04-22T19:36:40.113Z,21.10
2023-04-22T19:39:06.967Z,21.10
2023-04-22T19:41:35.076Z,21.00
2023-04-22T19:46:50.507Z,20.90
2023-04-22T19:49:17.868Z,20.90
2023-04-22T19:51:45.897Z,20.80
2023-04-22T19:54:13.686Z,20.80
2023-04-22T19:56:41.528Z,20.80
2023-04-22T19:59:08.802Z,20.70
2023-04-22T20:01:36.136Z,20.70
2023-04-22T20:04:04.378Z,20.60
2023-04-22T20:06:33.601Z,20.60
2023-04-22T20:09:01.809Z,20.50
2023-04-22T20:11:29.687Z,20.50
2023-04-22T20:13:56.917Z,20.50
2023-04-22T20:16:24.283Z,20.40
2023-04-22T20:18:51.693Z,20.30
2023-04-22T20:21:21.877Z,20.30
2023-04-22T20:23:51.390Z,20.30
2023-04-22T20:26:20.029Z,20.30
2023-04-22T20:28:49.734Z,20.20
2023-04-22T20:31:19.094Z,20.10
2023-04-22T20:33:46.565Z,20.10
2023-04-22T20:36:16.689Z,20.10
2023-04-22T20:38:47.334Z,20.00
2023-04-22T20:41:14.937Z,20.00
2023-04-22T20:43:42.311Z,19.90
2023-04-22T20:46:09.196Z,19.90
2023-04-22T20:48:36.206Z,19.90
2023-04-22T20:51:03.054Z,19.80
2023-04-22T20:53:30.440Z,19.80
2023-04-22T20:55:57.296Z,19.80
2023-04-22T20:58:24.147Z,19.80
2023-04-22T21:00:50.921Z,19.80
2023-04-22T21:03:19.038Z,19.70
2023-04-22T21:05:46.935Z,19.70
2023-04-22T21:08:25.473Z,19.60
2023-04-22T21:10:57.030Z,19.60
2023-04-22T21:13:24.309Z,19.50
2023-04-22T21:16:07.368Z,19.50
2023-04-22T21:18:35.363Z,19.40
2023-04-22T21:21:07.288Z,19.40
2023-04-22T21:23:34.527Z,19.30
2023-04-22T21:26:02.821Z,19.30
2023-04-22T21:28:29.973Z,19.30
2023-04-22T21:30:56.984Z,19.20
2023-04-22T21:33:25.394Z,19.20
2023-04-22T21:35:52.317Z,19.10
2023-04-22T21:38:19.920Z,19.10
2023-04-22T21:40:50.471Z,19.10
2023-04-22T21:43:17.256Z,19.00
2023-04-22T21:45:44.027Z,19.00
2023-04-22T21:48:10.850Z,18.90
2023-04-22T21:50:38.075Z,18.90
2023-04-22T21:53:04.759Z,18.80
2023-04-22T21:55:31.539Z,18.80
2023-04-22T21:57:58.516Z,18.70
2023-04-22T22:00:25.246Z,18.80
2023-04-22T22:02:53.095Z,18.70
2023-04-22T22:05:20.270Z,18.70
2023-04-22T22:07:47.140Z,18.70
2023-04-22T22:10:18.980Z,18.70
2023-04-22T22:12:46.921Z,18.60
2023-04-22T22:15:13.841Z,18.60
2023-04-22T22:17:40.549Z,18.60
2023-04-22T22:20:12.128Z,18.50
2023-04-22T22:22:39.746Z,18.60
2023-04-22T22:25:08.972Z,18.50
2023-04-22T22:27:37.028Z,18.50
2023-04-22T22:30:04.381Z,18.50
2023-04-22T22:32:31.305Z,18.50
2023-04-22T22:34:57.986Z,18.50
2023-04-22T22:37:24.845Z,18.50
2023-04-22T22:39:51.476Z,18.50
2023-04-22T22:42:18.195Z,18.40
2023-04-22T22:44:44.901Z,18.50
2023-04-22T22:47:11.595Z,18.40
2023-04-22T22:49:38.616Z,18.40
2023-04-22T22:52:05.560Z,18.40
2023-04-22T22:54:37.468Z,18.40
2023-04-22T22:57:05.616Z,18.40
2023-04-22T22:59:33.006Z,18.40
2023-04-22T23:02:00.292Z,18.40
2023-04-22T23:04:28.123Z,18.40
2023-04-22T23:06:55.663Z,18.40
2023-04-22T23:09:22.513Z,18.40
2023-04-22T23:11:52.777Z,18.40
2023-04-22T23:14:20.099Z,18.40
2023-04-22T23:16:47.314Z,18.40
2023-04-22T23:19:14.864Z,18.40
2023-04-22T23:21:42.665Z,18.40
2023-04-22T23:24:11.282Z,18.40
2023-04-22T23:26:38.297Z,18.40
2023-04-22T23:29:05.563Z,18.40
2023-04-22T23:31:34.124Z,18.40
2023-04-22T23:34:05.494Z,18.40
2023-04-22T23:36:36.329Z,18.50
2023-04-22T23:39:06.870Z,18.50
2023-04-22T23:41:33.866Z,18.50
2023-04-22T23:44:00.652Z,18.50
2023-04-22T23:46:27.660Z,18.50
2023-04-22T23:48:54.706Z,18.50
2023-04-22T23:51:21.519Z,18.50
2023-04-22T23:53:48.170Z,18.60
2023-04-22T23:56:15.321Z,18.50
2023-04-22T23:58:42.157Z,18.60
